Time;durP1;ratioP1;P1;durP2;ratioP2;P2;SDS_P1;SDS_P2;PMS_P1;PMS_P2;Temp;Humidity;BMP_temperature;BMP_pressure;BME280_temperature;BME280_humidity;BME280_pressure;Samples;Min_cycle;Max_cycle;Signal;HPM_P1;HPM_P2
2020/02/05 00:00:29;;;;;;;5.5;4.3;;;;;;;1.7;100;95502.7;;;;
2020/02/05 00:04:40;;;;;;;5.5;4.3;;;;;;;1.7;100;95502.7;;;;
2020/02/05 00:05:43;;;;;;;5.5;4.3;;;;;;;1.7;100;95502.7;;;;
2020/02/05 00:06:43;;;;;;;5.5;4.3;;;;;;;1.7;100;95502.7;;;;
2020/02/05 00:07:44;;;;;;;5.5;4.3;;;;;;;1.7;100;95502.7;;;;
2020/02/05 00:08:44;;;;;;;5.5;4.3;;;;;;;1.7;100;95502.7;;;;
2020/02/05 00:09:45;;;;;;;7.5;5.050001;;;;;;;1.67;100;95521.58;;;;
2020/02/05 00:11:19;;;;;;;7.5;5.050001;;;;;;;1.67;100;95521.58;;;;
2020/02/05 00:12:20;;;;;;;7.5;5.050001;;;;;;;1.67;100;95521.58;;;;
2020/02/05 00:13:20;;;;;;;7.5;5.050001;;;;;;;1.67;100;95521.58;;;;
2020/02/05 00:14:21;;;;;;;7.5;5.050001;;;;;;;1.67;100;95521.58;;;;
2020/02/05 00:15:23;;;;;;;7.5;5.050001;;;;;;;1.67;100;95521.58;;;;
2020/02/05 00:16:24;;;;;;;7.5;5.050001;;;;;;;1.67;100;95521.58;;;;
2020/02/05 00:17:25;;;;;;;7.5;5.050001;;;;;;;1.67;100;95521.58;;;;
2020/02/05 00:18:26;;;;;;;7.5;5.050001;;;;;;;1.67;100;95521.58;;;;
2020/02/05 00:19:27;;;;;;;7.5;5.050001;;;;;;;1.67;100;95521.58;;;;
2020/02/05 00:20:27;;;;;;;7.649999;5.849999;;;;;;;1.64;100;95537.07;;;;
2020/02/05 00:21:28;;;;;;;7.649999;5.849999;;;;;;;1.64;100;95537.07;;;;
2020/02/05 00:22:28;;;;;;;7.649999;5.849999;;;;;;;1.64;100;95537.07;;;;
2020/02/05 00:23:29;;;;;;;7.649999;5.849999;;;;;;;1.64;100;95537.07;;;;
2020/02/05 00:24:29;;;;;;;7.649999;5.849999;;;;;;;1.64;100;95537.07;;;;
2020/02/05 00:25:30;;;;;;;7.649999;5.849999;;;;;;;1.64;100;95537.07;;;;
2020/02/05 00:26:30;;;;;;;7.649999;5.849999;;;;;;;1.64;100;95537.07;;;;
2020/02/05 00:27:31;;;;;;;7.649999;5.849999;;;;;;;1.64;100;95537.07;;;;
2020/02/05 00:28:31;;;;;;;7.649999;5.849999;;;;;;;1.64;100;95537.07;;;;
2020/02/05 00:29:32;;;;;;;7.649999;5.849999;;;;;;;1.64;100;95537.07;;;;
2020/02/05 00:30:32;;;;;;;8.400001;6.299999;;;;;;;1.65;100;95533.01;;;;
2020/02/05 00:31:33;;;;;;;8.400001;6.299999;;;;;;;1.65;100;95533.01;;;;
2020/02/05 00:33:41;;;;;;;8.400001;6.299999;;;;;;;1.65;100;95533.01;;;;
2020/02/05 00:34:42;;;;;;;8.400001;6.299999;;;;;;;1.65;100;95533.01;;;;
2020/02/05 00:35:43;;;;;;;8.400001;6.299999;;;;;;;1.65;100;95533.01;;;;
2020/02/05 00:36:44;;;;;;;8.400001;6.299999;;;;;;;1.65;100;95533.01;;;;
2020/02/05 00:37:44;;;;;;;8.400001;6.299999;;;;;;;1.65;100;95533.01;;;;
2020/02/05 00:38:44;;;;;;;8.400001;6.299999;;;;;;;1.65;100;95533.01;;;;
2020/02/05 00:39:45;;;;;;;8.400001;6.299999;;;;;;;1.65;100;95533.01;;;;
2020/02/05 00:40:45;;;;;;;10.6;6.050001;;;;;;;1.59;100;95554.91;;;;
2020/02/05 00:41:46;;;;;;;10.6;6.050001;;;;;;;1.59;100;95554.91;;;;
2020/02/05 00:42:46;;;;;;;10.6;6.050001;;;;;;;1.59;100;95554.91;;;;
2020/02/05 00:43:47;;;;;;;10.6;6.050001;;;;;;;1.59;100;95554.91;;;;
2020/02/05 00:44:47;;;;;;;10.6;6.050001;;;;;;;1.59;100;95554.91;;;;
2020/02/05 00:45:48;;;;;;;10.6;6.050001;;;;;;;1.59;100;95554.91;;;;
2020/02/05 00:46:48;;;;;;;10.6;6.050001;;;;;;;1.59;100;95554.91;;;;
2020/02/05 00:47:49;;;;;;;10.6;6.050001;;;;;;;1.59;100;95554.91;;;;
2020/02/05 00:48:49;;;;;;;10.6;6.050001;;;;;;;1.59;100;95554.91;;;;
2020/02/05 00:49:50;;;;;;;10.6;6.050001;;;;;;;1.59;100;95554.91;;;;
2020/02/05 00:50:50;;;;;;;10.6;6.050001;;;;;;;1.59;100;95554.91;;;;
2020/02/05 00:51:50;;;;;;;10.6;6.050001;;;;;;;1.59;100;95554.91;;;;
2020/02/05 00:52:52;;;;;;;10.6;6.050001;;;;;;;1.59;100;95554.91;;;;
2020/02/05 00:53:58;;;;;;;10.6;6.050001;;;;;;;1.59;100;95554.91;;;;
2020/02/05 00:54:59;;;;;;;10.6;6.050001;;;;;;;1.59;100;95554.91;;;;
2020/02/05 00:56:00;;;;;;;10.6;6.050001;;;;;;;1.59;100;95554.91;;;;
2020/02/05 00:57:00;;;;;;;10.6;6.050001;;;;;;;1.59;100;95554.91;;;;
2020/02/05 00:58:01;;;;;;;10.6;6.050001;;;;;;;1.59;100;95554.91;;;;
2020/02/05 00:59:04;;;;;;;10.6;6.050001;;;;;;;1.59;100;95554.91;;;;
2020/02/05 01:00:04;;;;;;;10.6;6.050001;;;;;;;1.59;100;95554.91;;;;
2020/02/05 01:01:07;;;;;;;10.6;6.050001;;;;;;;1.59;100;95554.91;;;;
2020/02/05 01:02:09;;;;;;;10.6;6.050001;;;;;;;1.59;100;95554.91;;;;
2020/02/05 01:03:09;;;;;;;7.649999;5.599999;;;;;;;1.5;100;95554.63;;;;
2020/02/05 01:04:13;;;;;;;7.649999;5.599999;;;;;;;1.5;100;95554.63;;;;
2020/02/05 01:05:21;;;;;;;7.649999;5.599999;;;;;;;1.5;100;95554.63;;;;
2020/02/05 01:06:21;;;;;;;7.649999;5.599999;;;;;;;1.5;100;95554.63;;;;
2020/02/05 01:07:22;;;;;;;7.649999;5.599999;;;;;;;1.5;100;95554.63;;;;
2020/02/05 01:08:23;;;;;;;7.649999;5.599999;;;;;;;1.5;100;95554.63;;;;
2020/02/05 01:09:25;;;;;;;7.649999;5.599999;;;;;;;1.5;100;95554.63;;;;
2020/02/05 01:13:15;;;;;;;5.699999;4.849999;;;;;;;1.42;100;95559.97;;;;
2020/02/05 01:14:23;;;;;;;5.699999;4.849999;;;;;;;1.42;100;95559.97;;;;
2020/02/05 01:15:24;;;;;;;5.699999;4.849999;;;;;;;1.42;100;95559.97;;;;
2020/02/05 01:16:37;;;;;;;5.699999;4.849999;;;;;;;1.42;100;95559.97;;;;
2020/02/05 01:17:45;;;;;;;5.699999;4.849999;;;;;;;1.42;100;95559.97;;;;
2020/02/05 01:18:48;;;;;;;5.699999;4.849999;;;;;;;1.42;100;95559.97;;;;
2020/02/05 01:19:51;;;;;;;5.699999;4.849999;;;;;;;1.42;100;95559.97;;;;
2020/02/05 01:21:59;;;;;;;5.699999;4.849999;;;;;;;1.42;100;95559.97;;;;
2020/02/05 01:23:01;;;;;;;5.699999;4.849999;;;;;;;1.42;100;95559.97;;;;
2020/02/05 01:24:01;;;;;;;5.25;4.45;;;;;;;1.45;100;95579.6;;;;
2020/02/05 01:25:13;;;;;;;5.25;4.45;;;;;;;1.45;100;95579.6;;;;
2020/02/05 01:26:14;;;;;;;5.25;4.45;;;;;;;1.45;100;95579.6;;;;
2020/02/05 01:27:22;;;;;;;5.25;4.45;;;;;;;1.45;100;95579.6;;;;
2020/02/05 01:28:25;;;;;;;5.25;4.45;;;;;;;1.45;100;95579.6;;;;
2020/02/05 01:29:46;;;;;;;5.25;4.45;;;;;;;1.45;100;95579.6;;;;
2020/02/05 01:30:54;;;;;;;5.25;4.45;;;;;;;1.45;100;95579.6;;;;
2020/02/05 01:31:55;;;;;;;5.25;4.45;;;;;;;1.45;100;95579.6;;;;
2020/02/05 01:32:58;;;;;;;5.25;4.45;;;;;;;1.45;100;95579.6;;;;
2020/02/05 01:34:07;;;;;;;5.900001;4.25;;;;;;;1.56;100;95610.21;;;;
2020/02/05 01:35:13;;;;;;;5.900001;4.25;;;;;;;1.56;100;95610.21;;;;
2020/02/05 01:36:25;;;;;;;5.900001;4.25;;;;;;;1.56;100;95610.21;;;;
2020/02/05 01:37:29;;;;;;;5.900001;4.25;;;;;;;1.56;100;95610.21;;;;
2020/02/05 01:38:31;;;;;;;5.900001;4.25;;;;;;;1.56;100;95610.21;;;;
2020/02/05 01:39:32;;;;;;;5.900001;4.25;;;;;;;1.56;100;95610.21;;;;
2020/02/05 01:40:36;;;;;;;5.900001;4.25;;;;;;;1.56;100;95610.21;;;;
2020/02/05 01:41:44;;;;;;;5.900001;4.25;;;;;;;1.56;100;95610.21;;;;
2020/02/05 01:42:51;;;;;;;5.900001;4.25;;;;;;;1.56;100;95610.21;;;;
2020/02/05 01:43:55;;;;;;;5.900001;4.25;;;;;;;1.56;100;95610.21;;;;
2020/02/05 01:44:55;;;;;;;5.6;3.55;;;;;;;1.48;100;95621.38;;;;
2020/02/05 01:45:57;;;;;;;5.6;3.55;;;;;;;1.48;100;95621.38;;;;
2020/02/05 01:46:57;;;;;;;5.6;3.55;;;;;;;1.48;100;95621.38;;;;
2020/02/05 01:47:58;;;;;;;5.6;3.55;;;;;;;1.48;100;95621.38;;;;
2020/02/05 01:49:00;;;;;;;5.6;3.55;;;;;;;1.48;100;95621.38;;;;
2020/02/05 01:50:01;;;;;;;5.6;3.55;;;;;;;1.48;100;95621.38;;;;
2020/02/05 01:51:25;;;;;;;5.6;3.55;;;;;;;1.48;100;95621.38;;;;
2020/02/05 01:52:25;;;;;;;5.6;3.55;;;;;;;1.48;100;95621.38;;;;
2020/02/05 01:53:26;;;;;;;5.6;3.55;;;;;;;1.48;100;95621.38;;;;
2020/02/05 01:54:37;;;;;;;5.6;3.55;;;;;;;1.48;100;95621.38;;;;
2020/02/05 01:55:39;;;;;;;5.75;3.4;;;;;;;1.49;100;95649.25;;;;
2020/02/05 01:56:41;;;;;;;5.75;3.4;;;;;;;1.49;100;95649.25;;;;
2020/02/05 01:57:41;;;;;;;5.75;3.4;;;;;;;1.49;100;95649.25;;;;
2020/02/05 01:58:42;;;;;;;5.75;3.4;;;;;;;1.49;100;95649.25;;;;
2020/02/05 01:59:53;;;;;;;5.75;3.4;;;;;;;1.49;100;95649.25;;;;
2020/02/05 02:00:54;;;;;;;5.75;3.4;;;;;;;1.49;100;95649.25;;;;
2020/02/05 02:02:04;;;;;;;5.75;3.4;;;;;;;1.49;100;95649.25;;;;
2020/02/05 02:03:24;;;;;;;5.75;3.4;;;;;;;1.49;100;95649.25;;;;
2020/02/05 02:04:31;;;;;;;5.75;3.4;;;;;;;1.49;100;95649.25;;;;
2020/02/05 02:05:32;;;;;;;5.75;3.4;;;;;;;1.49;100;95649.25;;;;
2020/02/05 02:06:34;;;;;;;5.15;3.5;;;;;;;1.41;100;95660.31;;;;
2020/02/05 02:07:37;;;;;;;5.15;3.5;;;;;;;1.41;100;95660.31;;;;
2020/02/05 02:08:38;;;;;;;5.15;3.5;;;;;;;1.41;100;95660.31;;;;
2020/02/05 02:10:59;;;;;;;5.15;3.5;;;;;;;1.41;100;95660.31;;;;
2020/02/05 02:12:06;;;;;;;5.15;3.5;;;;;;;1.41;100;95660.31;;;;
2020/02/05 02:13:08;;;;;;;5.15;3.5;;;;;;;1.41;100;95660.31;;;;
2020/02/05 02:14:10;;;;;;;5.15;3.5;;;;;;;1.41;100;95660.31;;;;
2020/02/05 02:15:12;;;;;;;5.15;3.5;;;;;;;1.41;100;95660.31;;;;
2020/02/05 02:16:12;;;;;;;5.15;3.5;;;;;;;1.41;100;95660.31;;;;
2020/02/05 02:17:22;;;;;;;6.699999;3.85;;;;;;;1.36;100;95663.5;;;;
2020/02/05 02:18:27;;;;;;;6.699999;3.85;;;;;;;1.36;100;95663.5;;;;
2020/02/05 02:19:29;;;;;;;6.699999;3.85;;;;;;;1.36;100;95663.5;;;;
2020/02/05 02:24:36;;;;;;;6.699999;3.85;;;;;;;1.36;100;95663.5;;;;
2020/02/05 02:25:39;;;;;;;6.699999;3.85;;;;;;;1.36;100;95663.5;;;;
2020/02/05 02:26:42;;;;;;;6.699999;3.85;;;;;;;1.36;100;95663.5;;;;
2020/02/05 02:27:45;;;;;;;6.45;3.55;;;;;;;1.28;100;95679.47;;;;
2020/02/05 02:28:46;;;;;;;6.45;3.55;;;;;;;1.28;100;95679.47;;;;
2020/02/05 02:29:47;;;;;;;6.45;3.55;;;;;;;1.28;100;95679.47;;;;
2020/02/05 02:30:48;;;;;;;6.45;3.55;;;;;;;1.28;100;95679.47;;;;
2020/02/05 02:31:52;;;;;;;6.45;3.55;;;;;;;1.28;100;95679.47;;;;
2020/02/05 02:32:57;;;;;;;6.45;3.55;;;;;;;1.28;100;95679.47;;;;
2020/02/05 02:34:04;;;;;;;6.45;3.55;;;;;;;1.28;100;95679.47;;;;
2020/02/05 02:35:07;;;;;;;6.45;3.55;;;;;;;1.28;100;95679.47;;;;
2020/02/05 02:36:24;;;;;;;6.45;3.55;;;;;;;1.28;100;95679.47;;;;
2020/02/05 02:37:25;;;;;;;6.45;3.55;;;;;;;1.28;100;95679.47;;;;
2020/02/05 02:38:28;;;;;;;9.6;4.75;;;;;;;1.19;100;95685.8;;;;
2020/02/05 02:39:31;;;;;;;9.6;4.75;;;;;;;1.19;100;95685.8;;;;
2020/02/05 02:41:40;;;;;;;9.6;4.75;;;;;;;1.19;100;95685.8;;;;
2020/02/05 02:42:40;;;;;;;9.6;4.75;;;;;;;1.19;100;95685.8;;;;
2020/02/05 02:43:41;;;;;;;9.6;4.75;;;;;;;1.19;100;95685.8;;;;
2020/02/05 02:44:48;;;;;;;9.6;4.75;;;;;;;1.19;100;95685.8;;;;
2020/02/05 02:45:48;;;;;;;9.6;4.75;;;;;;;1.19;100;95685.8;;;;
2020/02/05 02:46:54;;;;;;;9.6;4.75;;;;;;;1.19;100;95685.8;;;;
2020/02/05 02:47:55;;;;;;;9.6;4.75;;;;;;;1.19;100;95685.8;;;;
2020/02/05 02:48:57;;;;;;;8.650001;4.199999;;;;;;;1.21;100;95663.02;;;;
2020/02/05 02:49:58;;;;;;;8.650001;4.199999;;;;;;;1.21;100;95663.02;;;;
2020/02/05 02:50:59;;;;;;;8.650001;4.199999;;;;;;;1.21;100;95663.02;;;;
2020/02/05 02:52:00;;;;;;;8.650001;4.199999;;;;;;;1.21;100;95663.02;;;;
2020/02/05 02:53:01;;;;;;;8.650001;4.199999;;;;;;;1.21;100;95663.02;;;;
2020/02/05 02:54:05;;;;;;;8.650001;4.199999;;;;;;;1.21;100;95663.02;;;;
2020/02/05 02:55:09;;;;;;;8.650001;4.199999;;;;;;;1.21;100;95663.02;;;;
2020/02/05 02:56:19;;;;;;;8.650001;4.199999;;;;;;;1.21;100;95663.02;;;;
2020/02/05 02:57:20;;;;;;;8.650001;4.199999;;;;;;;1.21;100;95663.02;;;;
2020/02/05 02:58:23;;;;;;;8.650001;4.199999;;;;;;;1.21;100;95663.02;;;;
2020/02/05 02:59:27;;;;;;;6.449999;3.3;;;;;;;1.19;100;95652.66;;;;
2020/02/05 03:00:30;;;;;;;6.449999;3.3;;;;;;;1.19;100;95652.66;;;;
2020/02/05 03:01:57;;;;;;;6.449999;3.3;;;;;;;1.19;100;95652.66;;;;
2020/02/05 03:02:58;;;;;;;6.449999;3.3;;;;;;;1.19;100;95652.66;;;;
2020/02/05 03:03:58;;;;;;;6.449999;3.3;;;;;;;1.19;100;95652.66;;;;
2020/02/05 03:05:04;;;;;;;6.449999;3.3;;;;;;;1.19;100;95652.66;;;;
2020/02/05 03:06:22;;;;;;;6.449999;3.3;;;;;;;1.19;100;95652.66;;;;
2020/02/05 03:07:28;;;;;;;6.449999;3.3;;;;;;;1.19;100;95652.66;;;;
2020/02/05 03:08:56;;;;;;;6.449999;3.3;;;;;;;1.19;100;95652.66;;;;
2020/02/05 03:09:57;;;;;;;6.6;2.6;;;;;;;1.26;100;95678.8;;;;
2020/02/05 03:11:06;;;;;;;6.6;2.6;;;;;;;1.26;100;95678.8;;;;
2020/02/05 03:12:38;;;;;;;6.6;2.6;;;;;;;1.26;100;95678.8;;;;
2020/02/05 03:14:17;;;;;;;6.6;2.6;;;;;;;1.26;100;95678.8;;;;
2020/02/05 03:15:41;;;;;;;6.6;2.6;;;;;;;1.26;100;95678.8;;;;
2020/02/05 03:16:50;;;;;;;6.6;2.6;;;;;;;1.26;100;95678.8;;;;
2020/02/05 03:17:51;;;;;;;6.6;2.6;;;;;;;1.26;100;95678.8;;;;
2020/02/05 03:18:52;;;;;;;6.6;2.6;;;;;;;1.26;100;95678.8;;;;
2020/02/05 03:19:52;;;;;;;6.6;2.6;;;;;;;1.26;100;95678.8;;;;
2020/02/05 03:20:52;;;;;;;5.199999;2.8;;;;;;;1.29;100;95704.66;;;;
2020/02/05 03:21:53;;;;;;;5.199999;2.8;;;;;;;1.29;100;95704.66;;;;
2020/02/05 03:22:54;;;;;;;5.199999;2.8;;;;;;;1.29;100;95704.66;;;;
2020/02/05 03:23:55;;;;;;;5.199999;2.8;;;;;;;1.29;100;95704.66;;;;
2020/02/05 03:24:55;;;;;;;5.199999;2.8;;;;;;;1.29;100;95704.66;;;;
2020/02/05 03:25:59;;;;;;;5.199999;2.8;;;;;;;1.29;100;95704.66;;;;
2020/02/05 03:27:01;;;;;;;5.199999;2.8;;;;;;;1.29;100;95704.66;;;;
2020/02/05 03:28:03;;;;;;;5.199999;2.8;;;;;;;1.29;100;95704.66;;;;
2020/02/05 03:29:10;;;;;;;5.199999;2.8;;;;;;;1.29;100;95704.66;;;;
2020/02/05 03:30:11;;;;;;;5.199999;2.8;;;;;;;1.29;100;95704.66;;;;
2020/02/05 03:31:17;;;;;;;7;3.65;;;;;;;1.37;100;95707.71;;;;
2020/02/05 03:32:20;;;;;;;7;3.65;;;;;;;1.37;100;95707.71;;;;
2020/02/05 03:33:21;;;;;;;7;3.65;;;;;;;1.37;100;95707.71;;;;
2020/02/05 03:34:23;;;;;;;7;3.65;;;;;;;1.37;100;95707.71;;;;
2020/02/05 03:35:35;;;;;;;7;3.65;;;;;;;1.37;100;95707.71;;;;
2020/02/05 03:36:57;;;;;;;7;3.65;;;;;;;1.37;100;95707.71;;;;
2020/02/05 03:38:52;;;;;;;7;3.65;;;;;;;1.37;100;95707.71;;;;
2020/02/05 03:40:08;;;;;;;7;3.65;;;;;;;1.37;100;95707.71;;;;
2020/02/05 03:41:16;;;;;;;7;3.65;;;;;;;1.37;100;95707.71;;;;
2020/02/05 03:42:18;;;;;;;6.15;3.85;;;;;;;1.36;100;95730;;;;
2020/02/05 03:43:22;;;;;;;6.15;3.85;;;;;;;1.36;100;95730;;;;
2020/02/05 03:44:31;;;;;;;6.15;3.85;;;;;;;1.36;100;95730;;;;
2020/02/05 03:45:37;;;;;;;6.15;3.85;;;;;;;1.36;100;95730;;;;
2020/02/05 03:46:47;;;;;;;6.15;3.85;;;;;;;1.36;100;95730;;;;
2020/02/05 03:47:58;;;;;;;6.15;3.85;;;;;;;1.36;100;95730;;;;
2020/02/05 03:49:02;;;;;;;6.15;3.85;;;;;;;1.36;100;95730;;;;
2020/02/05 03:50:10;;;;;;;6.15;3.85;;;;;;;1.36;100;95730;;;;
2020/02/05 03:51:17;;;;;;;6.15;3.85;;;;;;;1.36;100;95730;;;;
2020/02/05 03:52:53;;;;;;;6.75;4.3;;;;;;;1.36;100;95755.35;;;;
2020/02/05 03:53:56;;;;;;;6.75;4.3;;;;;;;1.36;100;95755.35;;;;
2020/02/05 03:55:07;;;;;;;6.75;4.3;;;;;;;1.36;100;95755.35;;;;
2020/02/05 03:56:12;;;;;;;6.75;4.3;;;;;;;1.36;100;95755.35;;;;
2020/02/05 03:57:22;;;;;;;6.75;4.3;;;;;;;1.36;100;95755.35;;;;
2020/02/05 03:58:35;;;;;;;6.75;4.3;;;;;;;1.36;100;95755.35;;;;
2020/02/05 03:59:44;;;;;;;6.75;4.3;;;;;;;1.36;100;95755.35;;;;
2020/02/05 04:04:52;;;;;;;8;4.85;;;;;;;1.44;100;95774.78;;;;
2020/02/05 04:05:53;;;;;;;8;4.85;;;;;;;1.44;100;95774.78;;;;
2020/02/05 04:06:55;;;;;;;8;4.85;;;;;;;1.44;100;95774.78;;;;
2020/02/05 04:07:57;;;;;;;8;4.85;;;;;;;1.44;100;95774.78;;;;
2020/02/05 04:09:16;;;;;;;8;4.85;;;;;;;1.44;100;95774.78;;;;
2020/02/05 04:10:28;;;;;;;8;4.85;;;;;;;1.44;100;95774.78;;;;
2020/02/05 04:11:40;;;;;;;8;4.85;;;;;;;1.44;100;95774.78;;;;
2020/02/05 04:12:41;;;;;;;8;4.85;;;;;;;1.44;100;95774.78;;;;
2020/02/05 04:13:44;;;;;;;9.1;4.9;;;;;;;1.46;100;95796.73;;;;
2020/02/05 04:14:45;;;;;;;9.1;4.9;;;;;;;1.46;100;95796.73;;;;
2020/02/05 04:15:53;;;;;;;9.1;4.9;;;;;;;1.46;100;95796.73;;;;
2020/02/05 04:17:03;;;;;;;9.1;4.9;;;;;;;1.46;100;95796.73;;;;
2020/02/05 04:18:20;;;;;;;9.1;4.9;;;;;;;1.46;100;95796.73;;;;
2020/02/05 04:19:32;;;;;;;9.1;4.9;;;;;;;1.46;100;95796.73;;;;
2020/02/05 04:20:38;;;;;;;9.1;4.9;;;;;;;1.46;100;95796.73;;;;
2020/02/05 04:21:45;;;;;;;9.1;4.9;;;;;;;1.46;100;95796.73;;;;
2020/02/05 04:22:51;;;;;;;9.1;4.9;;;;;;;1.46;100;95796.73;;;;
2020/02/05 04:23:56;;;;;;;6.9;4.199999;;;;;;;1.46;100;95803.38;;;;
2020/02/05 04:25:03;;;;;;;6.9;4.199999;;;;;;;1.46;100;95803.38;;;;
2020/02/05 04:26:11;;;;;;;6.9;4.199999;;;;;;;1.46;100;95803.38;;;;
2020/02/05 04:27:35;;;;;;;6.9;4.199999;;;;;;;1.46;100;95803.38;;;;
2020/02/05 04:28:56;;;;;;;6.9;4.199999;;;;;;;1.46;100;95803.38;;;;
2020/02/05 04:31:27;;;;;;;6.9;4.199999;;;;;;;1.46;100;95803.38;;;;
2020/02/05 04:38:55;;;;;;;5.549999;3.95;;;;;;;1.47;100;95826.83;;;;
2020/02/05 04:40:15;;;;;;;5.549999;3.95;;;;;;;1.47;100;95826.83;;;;
2020/02/05 04:41:19;;;;;;;5.549999;3.95;;;;;;;1.47;100;95826.83;;;;
2020/02/05 04:42:36;;;;;;;5.549999;3.95;;;;;;;1.47;100;95826.83;;;;
2020/02/05 04:44:15;;;;;;;5.549999;3.95;;;;;;;1.47;100;95826.83;;;;
2020/02/05 04:45:36;;;;;;;7.150001;3.75;;;;;;;1.58;100;95857.93;;;;
2020/02/05 04:47:07;;;;;;;7.150001;3.75;;;;;;;1.58;100;95857.93;;;;
2020/02/05 04:48:56;;;;;;;7.150001;3.75;;;;;;;1.58;100;95857.93;;;;
2020/02/05 04:50:23;;;;;;;7.150001;3.75;;;;;;;1.58;100;95857.93;;;;
2020/02/05 04:51:40;;;;;;;7.150001;3.75;;;;;;;1.58;100;95857.93;;;;
2020/02/05 04:54:15;;;;;;;7.150001;3.75;;;;;;;1.58;100;95857.93;;;;
2020/02/05 04:55:37;;;;;;;9.05;4.15;;;;;;;1.55;100;95862.23;;;;
2020/02/05 04:57:00;;;;;;;9.05;4.15;;;;;;;1.55;100;95862.23;;;;
2020/02/05 04:58:16;;;;;;;9.05;4.15;;;;;;;1.55;100;95862.23;;;;
2020/02/05 04:59:29;;;;;;;9.05;4.15;;;;;;;1.55;100;95862.23;;;;
2020/02/05 05:01:48;;;;;;;9.05;4.15;;;;;;;1.55;100;95862.23;;;;
2020/02/05 05:02:58;;;;;;;9.05;4.15;;;;;;;1.55;100;95862.23;;;;
2020/02/05 05:04:05;;;;;;;9.05;4.15;;;;;;;1.55;100;95862.23;;;;
2020/02/05 05:05:10;;;;;;;9.05;4.15;;;;;;;1.55;100;95862.23;;;;
2020/02/05 05:06:18;;;;;;;5.5;3.55;;;;;;;1.62;100;95874.78;;;;
2020/02/05 05:07:33;;;;;;;5.5;3.55;;;;;;;1.62;100;95874.78;;;;
2020/02/05 05:08:53;;;;;;;5.5;3.55;;;;;;;1.62;100;95874.78;;;;
2020/02/05 05:10:23;;;;;;;5.5;3.55;;;;;;;1.62;100;95874.78;;;;
2020/02/05 05:11:27;;;;;;;5.5;3.55;;;;;;;1.62;100;95874.78;;;;
2020/02/05 05:12:38;;;;;;;5.5;3.55;;;;;;;1.62;100;95874.78;;;;
2020/02/05 05:13:53;;;;;;;5.5;3.55;;;;;;;1.62;100;95874.78;;;;
2020/02/05 05:15:02;;;;;;;5.5;3.55;;;;;;;1.62;100;95874.78;;;;
2020/02/05 05:16:58;;;;;;;5.5;3.55;;;;;;;1.62;100;95874.78;;;;
2020/02/05 05:18:40;;;;;;;5.65;3.45;;;;;;;1.61;100;95905.49;;;;
2020/02/05 05:20:39;;;;;;;5.65;3.45;;;;;;;1.61;100;95905.49;;;;
2020/02/05 05:21:47;;;;;;;5.65;3.45;;;;;;;1.61;100;95905.49;;;;
2020/02/05 05:23:01;;;;;;;5.65;3.45;;;;;;;1.61;100;95905.49;;;;
2020/02/05 05:24:28;;;;;;;5.65;3.45;;;;;;;1.61;100;95905.49;;;;
2020/02/05 05:25:47;;;;;;;5.65;3.45;;;;;;;1.61;100;95905.49;;;;
2020/02/05 05:27:06;;;;;;;5.65;3.45;;;;;;;1.61;100;95905.49;;;;
2020/02/05 05:28:09;;;;;;;6.65;3.5;;;;;;;1.57;100;95916.13;;;;
2020/02/05 05:29:24;;;;;;;6.65;3.5;;;;;;;1.57;100;95916.13;;;;
2020/02/05 05:31:02;;;;;;;6.65;3.5;;;;;;;1.57;100;95916.13;;;;
2020/02/05 05:32:26;;;;;;;6.65;3.5;;;;;;;1.57;100;95916.13;;;;
2020/02/05 05:33:29;;;;;;;6.65;3.5;;;;;;;1.57;100;95916.13;;;;
2020/02/05 05:34:34;;;;;;;6.65;3.5;;;;;;;1.57;100;95916.13;;;;
2020/02/05 05:35:45;;;;;;;6.65;3.5;;;;;;;1.57;100;95916.13;;;;
2020/02/05 05:41:00;;;;;;;6.749999;3.55;;;;;;;1.6;100;95928.19;;;;
2020/02/05 05:42:03;;;;;;;6.749999;3.55;;;;;;;1.6;100;95928.19;;;;
2020/02/05 05:43:17;;;;;;;6.749999;3.55;;;;;;;1.6;100;95928.19;;;;
2020/02/05 05:44:40;;;;;;;6.749999;3.55;;;;;;;1.6;100;95928.19;;;;
2020/02/05 05:46:04;;;;;;;6.749999;3.55;;;;;;;1.6;100;95928.19;;;;
2020/02/05 05:47:34;;;;;;;6.749999;3.55;;;;;;;1.6;100;95928.19;;;;
2020/02/05 05:49:00;;;;;;;7.450001;3.3;;;;;;;1.44;100;95902.48;;;;
2020/02/05 05:50:21;;;;;;;7.450001;3.3;;;;;;;1.44;100;95902.48;;;;
2020/02/05 05:51:47;;;;;;;7.450001;3.3;;;;;;;1.44;100;95902.48;;;;
2020/02/05 05:53:30;;;;;;;7.450001;3.3;;;;;;;1.44;100;95902.48;;;;
2020/02/05 05:55:32;;;;;;;7.450001;3.3;;;;;;;1.44;100;95902.48;;;;
2020/02/05 05:58:15;;;;;;;7.450001;3.3;;;;;;;1.44;100;95902.48;;;;
2020/02/05 05:59:48;;;;;;;8.850001;3.35;;;;;;;1.26;100;95905.77;;;;
2020/02/05 06:01:07;;;;;;;8.850001;3.35;;;;;;;1.26;100;95905.77;;;;
2020/02/05 06:02:16;;;;;;;8.850001;3.35;;;;;;;1.26;100;95905.77;;;;
2020/02/05 06:04:18;;;;;;;8.850001;3.35;;;;;;;1.26;100;95905.77;;;;
2020/02/05 06:05:51;;;;;;;8.850001;3.35;;;;;;;1.26;100;95905.77;;;;
2020/02/05 06:07:32;;;;;;;8.850001;3.35;;;;;;;1.26;100;95905.77;;;;
2020/02/05 06:09:05;;;;;;;8.850001;3.35;;;;;;;1.26;100;95905.77;;;;
2020/02/05 06:10:14;;;;;;;5.900001;3.2;;;;;;;1.07;100;95928.69;;;;
2020/02/05 06:11:23;;;;;;;5.900001;3.2;;;;;;;1.07;100;95928.69;;;;
2020/02/05 06:12:52;;;;;;;5.900001;3.2;;;;;;;1.07;100;95928.69;;;;
2020/02/05 06:14:19;;;;;;;5.900001;3.2;;;;;;;1.07;100;95928.69;;;;
2020/02/05 06:15:57;;;;;;;5.900001;3.2;;;;;;;1.07;100;95928.69;;;;
2020/02/05 06:21:23;;;;;;;6.700001;3.5;;;;;;;1.08;100;95970.73;;;;
2020/02/05 06:22:42;;;;;;;6.700001;3.5;;;;;;;1.08;100;95970.73;;;;
2020/02/05 06:24:29;;;;;;;6.700001;3.5;;;;;;;1.08;100;95970.73;;;;
2020/02/05 06:25:48;;;;;;;6.700001;3.5;;;;;;;1.08;100;95970.73;;;;
2020/02/05 06:27:23;;;;;;;6.700001;3.5;;;;;;;1.08;100;95970.73;;;;
2020/02/05 06:28:43;;;;;;;6.700001;3.5;;;;;;;1.08;100;95970.73;;;;
2020/02/05 06:30:02;;;;;;;6.700001;3.5;;;;;;;1.08;100;95970.73;;;;
2020/02/05 06:31:08;;;;;;;6.700001;3.5;;;;;;;1.08;100;95970.73;;;;
2020/02/05 06:32:29;;;;;;;6.700001;3.5;;;;;;;1.08;100;95970.73;;;;
2020/02/05 06:33:40;;;;;;;6.700001;3.5;;;;;;;1.08;100;95970.73;;;;
2020/02/05 06:34:46;;;;;;;6.700001;3.5;;;;;;;1.08;100;95970.73;;;;
2020/02/05 06:35:49;;;;;;;6.700001;3.5;;;;;;;1.08;100;95970.73;;;;
2020/02/05 06:36:55;;;;;;;6.700001;3.5;;;;;;;1.08;100;95970.73;;;;
2020/02/05 06:38:02;;;;;;;6.700001;3.5;;;;;;;1.08;100;95970.73;;;;
2020/02/05 06:39:06;;;;;;;6.700001;3.5;;;;;;;1.08;100;95970.73;;;;
2020/02/05 06:40:06;;;;;;;6.700001;3.5;;;;;;;1.08;100;95970.73;;;;
2020/02/05 06:41:07;;;;;;;6.700001;3.5;;;;;;;1.08;100;95970.73;;;;
2020/02/05 06:42:09;;;;;;;6.150001;3.1;;;;;;;1.2;100;96041.66;;;;
2020/02/05 06:43:13;;;;;;;6.150001;3.1;;;;;;;1.2;100;96041.66;;;;
2020/02/05 06:44:19;;;;;;;6.150001;3.1;;;;;;;1.2;100;96041.66;;;;
2020/02/05 06:45:23;;;;;;;6.150001;3.1;;;;;;;1.2;100;96041.66;;;;
2020/02/05 06:46:27;;;;;;;6.150001;3.1;;;;;;;1.2;100;96041.66;;;;
2020/02/05 06:47:31;;;;;;;6.150001;3.1;;;;;;;1.2;100;96041.66;;;;
2020/02/05 06:48:38;;;;;;;6.150001;3.1;;;;;;;1.2;100;96041.66;;;;
2020/02/05 06:49:43;;;;;;;6.150001;3.1;;;;;;;1.2;100;96041.66;;;;
2020/02/05 06:50:44;;;;;;;6.150001;3.1;;;;;;;1.2;100;96041.66;;;;
2020/02/05 06:51:48;;;;;;;6.150001;3.1;;;;;;;1.2;100;96041.66;;;;
2020/02/05 06:52:51;;;;;;;5.199999;2.55;;;;;;;1.24;100;96074.41;;;;
2020/02/05 06:53:53;;;;;;;5.199999;2.55;;;;;;;1.24;100;96074.41;;;;
2020/02/05 06:54:55;;;;;;;5.199999;2.55;;;;;;;1.24;100;96074.41;;;;
2020/02/05 06:55:56;;;;;;;5.199999;2.55;;;;;;;1.24;100;96074.41;;;;
2020/02/05 06:57:03;;;;;;;5.199999;2.55;;;;;;;1.24;100;96074.41;;;;
2020/02/05 06:58:13;;;;;;;5.199999;2.55;;;;;;;1.24;100;96074.41;;;;
2020/02/05 06:59:30;;;;;;;5.199999;2.55;;;;;;;1.24;100;96074.41;;;;
2020/02/05 07:00:45;;;;;;;5.199999;2.55;;;;;;;1.24;100;96074.41;;;;
2020/02/05 07:01:50;;;;;;;5.199999;2.55;;;;;;;1.24;100;96074.41;;;;
2020/02/05 07:02:51;;;;;;;5.199999;2.55;;;;;;;1.24;100;96074.41;;;;
2020/02/05 07:03:51;;;;;;;5.55;2.95;;;;;;;1.28;100;96101.12;;;;
2020/02/05 07:04:52;;;;;;;5.55;2.95;;;;;;;1.28;100;96101.12;;;;
2020/02/05 07:05:52;;;;;;;5.55;2.95;;;;;;;1.28;100;96101.12;;;;
2020/02/05 07:06:56;;;;;;;5.55;2.95;;;;;;;1.28;100;96101.12;;;;
2020/02/05 07:07:58;;;;;;;5.55;2.95;;;;;;;1.28;100;96101.12;;;;
2020/02/05 07:09:02;;;;;;;5.55;2.95;;;;;;;1.28;100;96101.12;;;;
2020/02/05 07:10:03;;;;;;;5.55;2.95;;;;;;;1.28;100;96101.12;;;;
2020/02/05 07:11:03;;;;;;;5.55;2.95;;;;;;;1.28;100;96101.12;;;;
2020/02/05 07:12:04;;;;;;;5.55;2.95;;;;;;;1.28;100;96101.12;;;;
2020/02/05 07:13:07;;;;;;;5.55;2.95;;;;;;;1.28;100;96101.12;;;;
2020/02/05 07:14:08;;;;;;;6.250001;3.35;;;;;;;1.37;100;96124.93;;;;
2020/02/05 07:15:08;;;;;;;6.250001;3.35;;;;;;;1.37;100;96124.93;;;;
2020/02/05 07:16:10;;;;;;;6.250001;3.35;;;;;;;1.37;100;96124.93;;;;
2020/02/05 07:17:11;;;;;;;6.250001;3.35;;;;;;;1.37;100;96124.93;;;;
2020/02/05 07:18:11;;;;;;;6.250001;3.35;;;;;;;1.37;100;96124.93;;;;
2020/02/05 07:19:14;;;;;;;6.250001;3.35;;;;;;;1.37;100;96124.93;;;;
2020/02/05 07:20:14;;;;;;;6.250001;3.35;;;;;;;1.37;100;96124.93;;;;
2020/02/05 07:21:15;;;;;;;6.250001;3.35;;;;;;;1.37;100;96124.93;;;;
2020/02/05 07:22:16;;;;;;;6.250001;3.35;;;;;;;1.37;100;96124.93;;;;
2020/02/05 07:23:17;;;;;;;6.250001;3.35;;;;;;;1.37;100;96124.93;;;;
2020/02/05 07:24:17;;;;;;;5.55;2.900001;;;;;;;1.41;100;96132.03;;;;
2020/02/05 07:25:18;;;;;;;5.55;2.900001;;;;;;;1.41;100;96132.03;;;;
2020/02/05 07:26:19;;;;;;;5.55;2.900001;;;;;;;1.41;100;96132.03;;;;
2020/02/05 07:27:21;;;;;;;5.55;2.900001;;;;;;;1.41;100;96132.03;;;;
2020/02/05 07:28:26;;;;;;;5.55;2.900001;;;;;;;1.41;100;96132.03;;;;
2020/02/05 07:29:33;;;;;;;5.55;2.900001;;;;;;;1.41;100;96132.03;;;;